General La Madrid, Argentina
Current Conditions -  °F | °C
As of 3:00 PM on Friday 21 Nov 2014 (Local Time) from SAZM Reporting Station
Broken Clouds Broken Clouds  
Wind Chill: 17°   Ceiling: 10000
Heat Index: 17°   Visibility: 6mi
Dew Point: 14°   Wind: 13mph
Humidity: 82%   Direction: 110°ESE
Pressure: 30.03"   Gusts: NA
Location:  37.27°S, 61.28°W
Report Text: SAZM 211800Z 11011KT 9999 FEW023 BKN10017/14 Q1017
Loading
Personal Weather Stations






























Interactive Weather Map New forecast layout! Learn more

10-Day Weather Forecast

Advertisements
Track Severe Weather on mobile